Time;durP1;ratioP1;P1;durP2;ratioP2;P2;SDS_P1;SDS_P2;PMS_P1;PMS_P2;Temp;Humidity;BMP_temperature;BMP_pressure;BME280_temperature;BME280_humidity;BME280_pressure;Samples;Min_cycle;Max_cycle;Signal;HPM_P1;HPM_P2
2023/07/28 00:00:46;;;;;;;29.05;3.75;;;;;;;;;;5011901;28;20038;-60
2023/07/28 00:03:13;;;;;;;20.48;3.90;;;;;;;;;;5010952;28;20108;-62
2023/07/28 00:05:40;;;;;;;23.85;3.83;;;;;;;;;;5005142;28;20037;-62
2023/07/28 00:08:07;;;;;;;15.82;3.90;;;;;;;;;;5008221;28;20132;-62
2023/07/28 00:10:41;;;;;;;22.02;4.05;;;;;;;;;;5005205;28;20370;-59
2023/07/28 00:13:08;;;;;;;22.52;4.18;;;;;;;;;;5011257;28;20680;-61
2023/07/28 00:15:35;;;;;;;15.65;4.07;;;;;;;;;;5011873;28;20121;-59
2023/07/28 00:18:02;;;;;;;21.63;4.53;;;;;;;;;;5009984;28;20056;-59
2023/07/28 00:20:29;;;;;;;19.35;4.28;;;;;;;;;;5011788;28;20105;-59
2023/07/28 00:22:58;;;;;;;22.15;5.05;;;;;;;;;;5011710;28;20030;-59
2023/07/28 00:25:27;;;;;;;19.75;4.25;;;;;;;;;;5011852;28;20596;-60
2023/07/28 00:27:54;;;;;;;20.90;3.90;;;;;;;;;;5010844;28;20479;-60
2023/07/28 00:30:23;;;;;;;18.33;4.32;;;;;;;;;;5011760;28;20039;-58
2023/07/28 00:32:50;;;;;;;15.10;4.40;;;;;;;;;;5026435;28;20457;-61
2023/07/28 00:35:20;;;;;;;19.15;4.53;;;;;;;;;;5011424;28;20033;-62
2023/07/28 00:37:47;;;;;;;21.00;4.60;;;;;;;;;;5011044;28;20026;-61
2023/07/28 00:40:14;;;;;;;30.60;5.32;;;;;;;;;;5010543;28;20080;-56
2023/07/28 00:42:41;;;;;;;25.40;4.60;;;;;;;;;;5011667;28;20034;-62
2023/07/28 00:45:08;;;;;;;26.80;4.90;;;;;;;;;;5011099;28;20025;-61
2023/07/28 00:47:36;;;;;;;27.08;4.95;;;;;;;;;;5011742;28;20037;-59
2023/07/28 00:50:03;;;;;;;31.25;5.78;;;;;;;;;;5011380;28;20033;-57
2023/07/28 00:52:31;;;;;;;32.00;5.75;;;;;;;;;;5011496;28;20064;-59
2023/07/28 00:54:58;;;;;;;26.38;5.00;;;;;;;;;;5011502;28;20057;-58
2023/07/28 00:57:25;;;;;;;24.35;5.43;;;;;;;;;;5011342;28;20033;-58
2023/07/28 00:59:52;;;;;;;24.13;5.50;;;;;;;;;;5009052;28;20022;-58
2023/07/28 01:02:19;;;;;;;24.88;5.95;;;;;;;;;;5011186;28;20057;-53
2023/07/28 01:04:47;;;;;;;28.33;6.63;;;;;;;;;;5010182;28;20488;-52
2023/07/28 01:07:14;;;;;;;34.78;8.13;;;;;;;;;;5011490;28;20036;-56
2023/07/28 01:09:44;;;;;;;30.95;8.07;;;;;;;;;;5011604;28;20639;-55
2023/07/28 01:12:11;;;;;;;34.00;9.15;;;;;;;;;;5001920;28;20022;-53
2023/07/28 01:14:38;;;;;;;37.25;9.82;;;;;;;;;;5011468;28;20073;-56
2023/07/28 01:17:05;;;;;;;30.80;9.27;;;;;;;;;;5011388;28;20026;-56
2023/07/28 01:19:32;;;;;;;33.63;9.52;;;;;;;;;;5011547;28;20067;-56
2023/07/28 01:22:19;;;;;;;32.20;10.00;;;;;;;;;;5011240;28;20037;-57
2023/07/28 01:24:59;;;;;;;36.40;10.50;;;;;;;;;;4990772;28;20037;-56
2023/07/28 01:27:26;;;;;;;41.67;10.60;;;;;;;;;;5011001;28;20045;-58
2023/07/28 01:29:54;;;;;;;30.80;10.07;;;;;;;;;;5026021;28;20037;-60
2023/07/28 01:32:21;;;;;;;33.58;10.15;;;;;;;;;;5010099;28;20392;-58
2023/07/28 01:34:48;;;;;;;31.23;10.40;;;;;;;;;;5011360;28;20036;-58
2023/07/28 01:37:16;;;;;;;34.05;10.48;;;;;;;;;;5003735;28;20447;-58
2023/07/28 01:39:43;;;;;;;34.65;10.10;;;;;;;;;;5005884;28;20480;-58
2023/07/28 01:42:10;;;;;;;28.92;10.27;;;;;;;;;;5011088;28;20399;-56
2023/07/28 01:44:37;;;;;;;31.35;10.02;;;;;;;;;;5011306;28;20026;-58
2023/07/28 01:47:04;;;;;;;36.80;9.55;;;;;;;;;;5011208;28;20037;-56
2023/07/28 01:49:31;;;;;;;31.30;10.00;;;;;;;;;;5010906;28;20439;-57
2023/07/28 01:51:58;;;;;;;24.67;8.60;;;;;;;;;;5002979;28;20473;-56
2023/07/28 01:54:25;;;;;;;29.98;9.70;;;;;;;;;;5011170;28;20460;-56
2023/07/28 01:56:52;;;;;;;35.30;9.82;;;;;;;;;;5011138;28;20460;-55
2023/07/28 01:59:20;;;;;;;30.52;9.25;;;;;;;;;;5010591;28;20423;-57
2023/07/28 02:01:47;;;;;;;36.10;10.60;;;;;;;;;;5010651;28;20057;-54
2023/07/28 02:04:15;;;;;;;28.40;9.23;;;;;;;;;;5010090;28;20734;-63
2023/07/28 02:06:42;;;;;;;32.30;10.35;;;;;;;;;;5010900;28;20034;-62
2023/07/28 02:09:09;;;;;;;26.67;9.70;;;;;;;;;;5010906;28;20384;-61
2023/07/28 02:11:37;;;;;;;26.48;10.07;;;;;;;;;;5013521;28;20117;-61
2023/07/28 02:14:04;;;;;;;39.03;11.73;;;;;;;;;;5013112;28;20076;-62
2023/07/28 02:16:32;;;;;;;28.40;10.90;;;;;;;;;;5013118;28;20032;-61
2023/07/28 02:18:59;;;;;;;23.17;10.52;;;;;;;;;;5012287;28;20045;-62
2023/07/28 02:21:27;;;;;;;30.08;11.95;;;;;;;;;;5012820;28;20037;-62
2023/07/28 02:23:54;;;;;;;37.58;12.68;;;;;;;;;;5013048;28;20029;-62
2023/07/28 02:26:26;;;;;;;38.80;12.68;;;;;;;;;;5013526;28;20030;-62
2023/07/28 02:28:53;;;;;;;30.35;12.55;;;;;;;;;;5012796;28;20472;-61
2023/07/28 02:31:20;;;;;;;33.70;13.02;;;;;;;;;;5012725;28;20061;-62
2023/07/28 02:33:49;;;;;;;34.17;13.85;;;;;;;;;;5012445;28;20038;-62
2023/07/28 02:36:16;;;;;;;27.77;12.07;;;;;;;;;;5012751;28;20037;-61
2023/07/28 02:38:43;;;;;;;27.50;12.93;;;;;;;;;;5012661;28;20542;-61
2023/07/28 02:41:10;;;;;;;28.00;12.30;;;;;;;;;;5012616;28;20037;-62
2023/07/28 02:43:37;;;;;;;31.23;13.65;;;;;;;;;;5012702;28;20053;-61
2023/07/28 02:46:04;;;;;;;31.45;12.73;;;;;;;;;;5013254;28;20034;-61
2023/07/28 02:48:31;;;;;;;29.98;13.00;;;;;;;;;;5014075;28;20030;-62
2023/07/28 02:50:58;;;;;;;27.88;12.55;;;;;;;;;;5013230;28;20038;-61
2023/07/28 02:53:25;;;;;;;24.00;12.35;;;;;;;;;;5013060;28;20033;-61
2023/07/28 02:55:52;;;;;;;26.35;12.48;;;;;;;;;;5013007;28;20442;-62
2023/07/28 02:58:19;;;;;;;27.85;12.18;;;;;;;;;;5012963;28;20034;-61
2023/07/28 03:00:46;;;;;;;21.92;12.80;;;;;;;;;;5013683;28;20034;-61
2023/07/28 03:03:13;;;;;;;28.38;12.15;;;;;;;;;;5013431;28;20140;-61
2023/07/28 03:05:41;;;;;;;23.23;12.07;;;;;;;;;;5013589;28;20068;-61
2023/07/28 03:08:08;;;;;;;29.08;12.63;;;;;;;;;;5013660;28;20026;-61
2023/07/28 03:10:35;;;;;;;19.33;11.27;;;;;;;;;;5013563;28;20026;-61
2023/07/28 03:13:02;;;;;;;21.92;11.23;;;;;;;;;;5013580;28;20093;-61
2023/07/28 03:15:29;;;;;;;20.27;11.35;;;;;;;;;;5013443;28;20152;-61
2023/07/28 03:17:56;;;;;;;23.02;11.15;;;;;;;;;;5013552;28;20110;-61
2023/07/28 03:20:23;;;;;;;20.30;11.98;;;;;;;;;;5013376;28;20021;-61
2023/07/28 03:22:50;;;;;;;21.40;11.55;;;;;;;;;;5012676;28;20040;-61
2023/07/28 03:25:17;;;;;;;21.70;10.90;;;;;;;;;;5013284;28;20033;-61
2023/07/28 03:27:45;;;;;;;19.42;10.50;;;;;;;;;;5013305;28;20105;-61
2023/07/28 03:30:12;;;;;;;21.60;10.50;;;;;;;;;;5013168;28;20467;-61
2023/07/28 03:32:39;;;;;;;21.35;10.45;;;;;;;;;;5012983;28;20045;-61
2023/07/28 03:35:07;;;;;;;19.58;9.95;;;;;;;;;;5013126;28;20025;-61
2023/07/28 03:37:34;;;;;;;18.90;9.65;;;;;;;;;;5013171;28;20105;-61
2023/07/28 03:40:01;;;;;;;17.02;10.10;;;;;;;;;;5012892;28;20034;-61
2023/07/28 03:42:28;;;;;;;17.08;10.05;;;;;;;;;;5012980;28;20042;-61
2023/07/28 03:44:55;;;;;;;18.75;9.95;;;;;;;;;;5013011;28;20518;-61
2023/07/28 03:47:22;;;;;;;18.95;9.73;;;;;;;;;;5012850;28;20038;-61
2023/07/28 03:49:49;;;;;;;18.05;9.75;;;;;;;;;;5012817;28;20034;-61
2023/07/28 03:52:17;;;;;;;19.40;10.00;;;;;;;;;;5012836;28;20022;-61
2023/07/28 03:54:44;;;;;;;15.75;9.23;;;;;;;;;;5012819;28;20041;-61
2023/07/28 03:57:11;;;;;;;18.48;10.23;;;;;;;;;;5012736;28;20029;-61
2023/07/28 03:59:38;;;;;;;17.75;9.60;;;;;;;;;;5012571;28;20030;-61
2023/07/28 04:02:05;;;;;;;15.95;8.95;;;;;;;;;;5012394;28;20465;-63
2023/07/28 04:04:32;;;;;;;14.30;8.82;;;;;;;;;;5012669;28;20054;-61
2023/07/28 04:06:59;;;;;;;15.35;9.15;;;;;;;;;;5012670;28;20080;-61
2023/07/28 04:09:26;;;;;;;14.43;8.95;;;;;;;;;;5012528;28;20058;-61
2023/07/28 04:11:53;;;;;;;16.67;8.95;;;;;;;;;;5012489;28;20057;-61
2023/07/28 04:14:20;;;;;;;14.10;8.65;;;;;;;;;;5012351;28;20416;-61
2023/07/28 04:16:47;;;;;;;14.07;8.32;;;;;;;;;;5012474;28;20129;-60
2023/07/28 04:19:14;;;;;;;14.95;8.60;;;;;;;;;;5012435;28;20084;-61
2023/07/28 04:21:41;;;;;;;13.70;8.48;;;;;;;;;;5012230;28;20488;-61
2023/07/28 04:24:08;;;;;;;13.18;8.00;;;;;;;;;;5012274;28;20080;-61
2023/07/28 04:26:36;;;;;;;14.57;8.52;;;;;;;;;;5012270;28;20022;-61
2023/07/28 04:29:03;;;;;;;15.05;8.43;;;;;;;;;;5012278;28;20049;-61
2023/07/28 04:31:30;;;;;;;11.77;7.90;;;;;;;;;;5012079;28;20129;-61
2023/07/28 04:33:57;;;;;;;16.95;7.82;;;;;;;;;;5011150;28;20041;-61
2023/07/28 04:36:24;;;;;;;12.98;7.90;;;;;;;;;;5012183;28;20029;-61
2023/07/28 04:38:51;;;;;;;14.35;7.72;;;;;;;;;;5012033;28;20033;-61
2023/07/28 04:41:18;;;;;;;12.40;7.45;;;;;;;;;;5012076;28;20072;-61
2023/07/28 04:43:45;;;;;;;12.98;7.88;;;;;;;;;;5012092;28;20018;-61
2023/07/28 04:46:12;;;;;;;12.20;7.05;;;;;;;;;;5012014;28;20030;-61
2023/07/28 04:48:39;;;;;;;10.50;6.80;;;;;;;;;;5012062;28;20060;-61
2023/07/28 04:51:06;;;;;;;10.85;7.35;;;;;;;;;;5011842;28;20073;-61
2023/07/28 04:53:33;;;;;;;12.38;7.28;;;;;;;;;;5011814;28;20033;-61
2023/07/28 04:56:00;;;;;;;10.73;6.80;;;;;;;;;;5011967;28;20488;-61
2023/07/28 04:58:27;;;;;;;10.15;7.28;;;;;;;;;;5010628;28;20384;-61
2023/07/28 05:00:54;;;;;;;9.80;6.40;;;;;;;;;;5011760;28;20793;-61
2023/07/28 05:03:21;;;;;;;10.18;6.70;;;;;;;;;;5011563;28;20049;-61
2023/07/28 05:05:48;;;;;;;10.95;6.53;;;;;;;;;;5011842;28;20108;-62
2023/07/28 05:08:15;;;;;;;10.35;6.35;;;;;;;;;;5011841;28;20416;-61
2023/07/28 05:10:43;;;;;;;8.70;6.13;;;;;;;;;;5011743;28;20081;-61
2023/07/28 05:13:10;;;;;;;14.27;6.47;;;;;;;;;;5011779;28;20040;-61
2023/07/28 05:15:37;;;;;;;9.52;6.10;;;;;;;;;;5011813;28;20026;-61
2023/07/28 05:18:04;;;;;;;9.88;6.18;;;;;;;;;;5011665;28;20022;-61
2023/07/28 05:20:31;;;;;;;9.45;5.65;;;;;;;;;;5011604;28;20049;-61
2023/07/28 05:22:58;;;;;;;8.00;5.50;;;;;;;;;;5011697;28;20105;-61
2023/07/28 05:25:25;;;;;;;8.40;5.93;;;;;;;;;;5011643;28;20018;-61
2023/07/28 05:27:52;;;;;;;8.80;5.63;;;;;;;;;;5011632;28;20022;-61
2023/07/28 05:30:19;;;;;;;10.05;5.88;;;;;;;;;;5011392;28;20084;-61
2023/07/28 05:32:46;;;;;;;8.57;5.75;;;;;;;;;;5011635;28;20373;-61
2023/07/28 05:35:13;;;;;;;8.70;6.35;;;;;;;;;;5011517;28;20018;-61
2023/07/28 05:37:40;;;;;;;7.75;5.30;;;;;;;;;;5011573;28;20080;-61
2023/07/28 05:40:07;;;;;;;8.32;5.32;;;;;;;;;;5011246;28;20034;-61
2023/07/28 05:42:34;;;;;;;7.18;5.20;;;;;;;;;;5011398;28;20064;-60
2023/07/28 05:45:03;;;;;;;10.93;5.35;;;;;;;;;;5012004;28;20026;-61
2023/07/28 05:47:30;;;;;;;8.95;5.05;;;;;;;;;;5015049;28;20381;-62
2023/07/28 05:49:57;;;;;;;6.57;4.50;;;;;;;;;;5015135;28;20433;-61
2023/07/28 05:52:24;;;;;;;7.65;5.18;;;;;;;;;;5015089;28;20037;-61
2023/07/28 05:54:51;;;;;;;7.88;4.82;;;;;;;;;;5015032;28;20026;-62
2023/07/28 05:57:18;;;;;;;8.85;5.20;;;;;;;;;;5015048;28;20030;-61
2023/07/28 05:59:45;;;;;;;7.63;4.93;;;;;;;;;;5013588;28;20025;-61
2023/07/28 06:02:12;;;;;;;6.78;4.60;;;;;;;;;;5013311;28;20089;-61
2023/07/28 06:04:39;;;;;;;7.97;4.78;;;;;;;;;;5014876;28;20025;-61
2023/07/28 06:07:06;;;;;;;6.20;4.65;;;;;;;;;;5014896;28;20022;-61
2023/07/28 06:09:33;;;;;;;7.18;4.75;;;;;;;;;;5014733;28;20030;-61
2023/07/28 06:12:00;;;;;;;7.85;4.50;;;;;;;;;;5014789;28;20026;-61
2023/07/28 06:14:27;;;;;;;6.63;4.20;;;;;;;;;;5014696;28;20034;-61
2023/07/28 06:16:54;;;;;;;7.63;4.50;;;;;;;;;;5014714;28;20062;-61
2023/07/28 06:19:23;;;;;;;7.57;4.72;;;;;;;;;;5014586;28;20427;-62
2023/07/28 06:21:51;;;;;;;6.88;4.07;;;;;;;;;;5014426;28;20046;-61
2023/07/28 06:24:19;;;;;;;7.90;5.07;;;;;;;;;;5014423;28;20163;-61
2023/07/28 06:26:46;;;;;;;7.85;4.85;;;;;;;;;;5014501;28;20075;-61
2023/07/28 06:29:13;;;;;;;5.50;3.92;;;;;;;;;;5014442;28;20030;-61
2023/07/28 06:31:40;;;;;;;6.10;4.13;;;;;;;;;;5014233;28;20037;-61
2023/07/28 06:34:07;;;;;;;6.25;4.30;;;;;;;;;;5014171;28;20447;-61
2023/07/28 06:36:34;;;;;;;7.05;4.50;;;;;;;;;;5014379;28;20376;-61
2023/07/28 06:39:01;;;;;;;6.55;4.40;;;;;;;;;;5014279;28;20498;-61
2023/07/28 06:41:28;;;;;;;6.85;4.38;;;;;;;;;;5013966;28;20041;-60
2023/07/28 06:43:55;;;;;;;7.65;4.78;;;;;;;;;;5012704;28;20026;-61
2023/07/28 06:46:22;;;;;;;5.63;4.13;;;;;;;;;;5014120;28;20125;-61
2023/07/28 06:48:49;;;;;;;6.88;4.22;;;;;;;;;;5014162;28;20022;-61
2023/07/28 06:51:16;;;;;;;6.35;4.35;;;;;;;;;;5013979;28;20032;-60
2023/07/28 06:53:43;;;;;;;6.97;4.30;;;;;;;;;;5014070;28;20076;-61
2023/07/28 06:56:10;;;;;;;6.18;4.13;;;;;;;;;;5013573;28;20036;-61
2023/07/28 06:58:37;;;;;;;6.00;4.28;;;;;;;;;;5013284;28;20492;-61
2023/07/28 07:01:04;;;;;;;7.15;4.78;;;;;;;;;;5013734;28;20101;-61
2023/07/28 07:03:31;;;;;;;7.47;4.55;;;;;;;;;;5013655;28;20076;-60
2023/07/28 07:05:58;;;;;;;6.15;4.43;;;;;;;;;;5013831;28;20028;-61
2023/07/28 07:08:26;;;;;;;7.13;4.45;;;;;;;;;;5013776;28;20110;-61
2023/07/28 07:10:54;;;;;;;5.60;4.30;;;;;;;;;;5013486;28;20112;-61
2023/07/28 07:13:21;;;;;;;7.40;4.70;;;;;;;;;;5013598;28;20040;-61
2023/07/28 07:15:48;;;;;;;8.20;4.22;;;;;;;;;;5013486;28;20033;-61
2023/07/28 07:18:15;;;;;;;7.95;4.38;;;;;;;;;;5013587;28;20022;-61
2023/07/28 07:20:43;;;;;;;6.57;4.45;;;;;;;;;;5013445;28;20029;-61
2023/07/28 07:23:10;;;;;;;7.82;4.30;;;;;;;;;;5013414;28;20042;-61
2023/07/28 07:25:37;;;;;;;7.38;4.85;;;;;;;;;;5013349;28;20030;-61
2023/07/28 07:28:04;;;;;;;6.45;4.18;;;;;;;;;;5013445;28;20493;-62
2023/07/28 07:30:33;;;;;;;6.07;4.32;;;;;;;;;;5013303;28;20518;-60
2023/07/28 07:33:00;;;;;;;5.18;4.10;;;;;;;;;;5011902;28;20030;-62
2023/07/28 07:35:27;;;;;;;6.13;3.83;;;;;;;;;;5013140;28;20022;-61
2023/07/28 07:37:54;;;;;;;5.72;4.15;;;;;;;;;;5013154;28;20030;-61
2023/07/28 07:40:21;;;;;;;6.68;4.15;;;;;;;;;;5013130;28;20061;-61
2023/07/28 07:42:49;;;;;;;6.85;4.15;;;;;;;;;;5013090;28;20120;-61
2023/07/28 07:45:17;;;;;;;5.60;4.32;;;;;;;;;;5013075;28;20480;-61
2023/07/28 07:47:44;;;;;;;6.78;4.38;;;;;;;;;;5012830;28;20543;-61
2023/07/28 07:50:11;;;;;;;7.28;4.38;;;;;;;;;;5012864;28;20503;-61
2023/07/28 07:52:39;;;;;;;8.55;4.40;;;;;;;;;;5012921;28;20559;-61
2023/07/28 07:55:06;;;;;;;5.60;3.75;;;;;;;;;;5012933;28;20073;-61
2023/07/28 07:57:33;;;;;;;5.85;4.03;;;;;;;;;;5012838;28;20068;-60
2023/07/28 08:00:00;;;;;;;6.70;4.32;;;;;;;;;;5012737;28;20077;-63
2023/07/28 08:02:28;;;;;;;5.70;4.18;;;;;;;;;;5012459;28;20056;-61
2023/07/28 08:04:55;;;;;;;5.78;3.85;;;;;;;;;;5012772;28;20026;-60
2023/07/28 08:07:23;;;;;;;7.45;4.38;;;;;;;;;;5012720;28;20101;-61
2023/07/28 08:09:50;;;;;;;6.00;3.90;;;;;;;;;;5012271;28;20045;-61
2023/07/28 08:12:17;;;;;;;6.28;4.18;;;;;;;;;;5012651;28;20112;-61
2023/07/28 08:14:45;;;;;;;5.85;4.18;;;;;;;;;;5012546;28;20048;-61
2023/07/28 08:17:13;;;;;;;6.13;4.13;;;;;;;;;;5012659;28;20487;-61
2023/07/28 08:19:40;;;;;;;5.22;3.63;;;;;;;;;;5012387;28;20112;-61
2023/07/28 08:22:08;;;;;;;5.68;3.83;;;;;;;;;;5012303;28;20096;-61
2023/07/28 08:24:35;;;;;;;6.30;4.15;;;;;;;;;;5012402;28;20080;-61
2023/07/28 08:27:02;;;;;;;5.82;3.70;;;;;;;;;;5012376;28;20503;-61
2023/07/28 08:29:29;;;;;;;4.45;3.33;;;;;;;;;;5012100;28;20030;-60
2023/07/28 08:31:56;;;;;;;5.20;3.88;;;;;;;;;;5012242;28;20033;-61
2023/07/28 08:34:23;;;;;;;6.03;3.95;;;;;;;;;;5012255;28;20076;-61
2023/07/28 08:36:50;;;;;;;4.60;3.70;;;;;;;;;;5012144;28;20022;-60
2023/07/28 08:39:18;;;;;;;5.75;3.90;;;;;;;;;;5012151;28;20148;-61
2023/07/28 08:41:45;;;;;;;5.32;3.67;;;;;;;;;;5012078;28;20030;-60
2023/07/28 08:44:12;;;;;;;6.20;3.80;;;;;;;;;;5012069;28;20546;-61
2023/07/28 08:46:39;;;;;;;6.15;3.90;;;;;;;;;;5012097;28;20033;-61
2023/07/28 08:49:06;;;;;;;5.38;3.80;;;;;;;;;;5012036;28;20029;-60
2023/07/28 08:51:33;;;;;;;6.55;3.40;;;;;;;;;;5012019;28;20026;-60
2023/07/28 08:54:00;;;;;;;5.20;3.42;;;;;;;;;;5011918;28;20104;-60
2023/07/28 08:56:29;;;;;;;5.15;3.60;;;;;;;;;;5011956;28;20022;-61
2023/07/28 08:58:59;;;;;;;5.13;3.72;;;;;;;;;;5011544;28;20046;-61
2023/07/28 09:01:26;;;;;;;5.35;3.88;;;;;;;;;;5011543;28;20029;-61
2023/07/28 09:03:53;;;;;;;4.85;3.45;;;;;;;;;;5011753;28;20097;-62
2023/07/28 09:06:29;;;;;;;4.32;3.42;;;;;;;;;;5011761;28;20030;-61
2023/07/28 09:08:57;;;;;;;4.40;3.55;;;;;;;;;;5011784;28;20476;-62
2023/07/28 09:11:29;;;;;;;5.28;3.58;;;;;;;;;;5011325;28;20109;-61
2023/07/28 09:13:56;;;;;;;5.57;3.22;;;;;;;;;;5011655;28;20026;-61
2023/07/28 09:16:24;;;;;;;5.15;3.83;;;;;;;;;;5010367;28;20484;-62
2023/07/28 09:18:51;;;;;;;5.15;3.83;;;;;;;;;;5008099;28;20085;-61
2023/07/28 09:21:21;;;;;;;6.80;3.47;;;;;;;;;;5013621;28;20092;-61
2023/07/28 09:23:49;;;;;;;6.57;3.42;;;;;;;;;;5015074;28;20014;-61
2023/07/28 09:26:16;;;;;;;6.35;3.15;;;;;;;;;;5015023;28;20030;-61
2023/07/28 09:28:43;;;;;;;6.95;3.08;;;;;;;;;;5012398;28;20030;-61
2023/07/28 09:31:11;;;;;;;7.22;3.22;;;;;;;;;;5013260;28;20458;-61
2023/07/28 09:33:42;;;;;;;7.05;2.78;;;;;;;;;;5014124;28;20476;-62
2023/07/28 09:36:15;;;;;;;3.67;2.60;;;;;;;;;;5014197;28;20515;-63
2023/07/28 09:38:42;;;;;;;6.50;3.20;;;;;;;;;;5014723;28;20033;-61
2023/07/28 09:41:11;;;;;;;6.32;3.50;;;;;;;;;;5013100;28;20033;-61
2023/07/28 09:43:39;;;;;;;4.30;2.92;;;;;;;;;;5014773;28;20052;-61
2023/07/28 09:46:07;;;;;;;5.38;2.80;;;;;;;;;;5015161;28;20384;-60
2023/07/28 09:48:35;;;;;;;6.70;3.10;;;;;;;;;;5012223;28;20086;-61
2023/07/28 09:51:22;;;;;;;6.18;2.92;;;;;;;;;;5014752;28;20034;-60
2023/07/28 09:54:01;;;;;;;9.48;3.25;;;;;;;;;;5014802;28;20058;-61
2023/07/28 09:56:32;;;;;;;5.60;3.03;;;;;;;;;;5015119;28;20087;-61
2023/07/28 09:59:00;;;;;;;5.55;3.28;;;;;;;;;;5014526;28;20479;-61
2023/07/28 10:01:28;;;;;;;8.65;3.50;;;;;;;;;;5014354;28;20026;-61
2023/07/28 10:03:55;;;;;;;9.00;3.10;;;;;;;;;;5014048;28;20034;-61
2023/07/28 10:06:22;;;;;;;8.02;3.20;;;;;;;;;;5010796;28;20037;-62
2023/07/28 10:08:49;;;;;;;13.77;3.40;;;;;;;;;;5002209;28;20053;-62
2023/07/28 10:11:17;;;;;;;6.40;3.13;;;;;;;;;;5011362;28;20025;-60
2023/07/28 10:13:46;;;;;;;10.50;3.28;;;;;;;;;;5011796;28;20404;-57
2023/07/28 10:16:17;;;;;;;8.30;3.42;;;;;;;;;;5012415;28;20436;-63
2023/07/28 10:18:52;;;;;;;9.10;3.50;;;;;;;;;;5009695;28;20044;-59
2023/07/28 10:21:20;;;;;;;6.85;3.13;;;;;;;;;;5012101;28;20029;-60
2023/07/28 10:23:55;;;;;;;9.27;3.13;;;;;;;;;;5012467;28;20765;-64
2023/07/28 10:26:41;;;;;;;9.10;3.33;;;;;;;;;;5013759;28;20029;-55
2023/07/28 10:29:15;;;;;;;6.82;3.03;;;;;;;;;;5011333;28;20065;-59
2023/07/28 10:31:52;;;;;;;4.72;3.22;;;;;;;;;;5008656;28;20018;-62
2023/07/28 10:34:19;;;;;;;5.90;3.03;;;;;;;;;;5010648;28;20123;-64
2023/07/28 10:36:46;;;;;;;5.35;2.63;;;;;;;;;;5010930;28;20049;-58
2023/07/28 10:39:17;;;;;;;4.38;2.70;;;;;;;;;;5011568;28;20034;-63
2023/07/28 10:42:04;;;;;;;5.88;3.10;;;;;;;;;;5012216;28;20395;-64
2023/07/28 10:44:32;;;;;;;9.35;2.85;;;;;;;;;;5006360;28;20136;-68
2023/07/28 10:46:59;;;;;;;6.68;3.05;;;;;;;;;;5012560;28;20025;-59
2023/07/28 10:49:26;;;;;;;4.78;2.78;;;;;;;;;;5012610;28;20022;-64
2023/07/28 10:51:53;;;;;;;7.40;2.85;;;;;;;;;;5013949;28;20029;-62
2023/07/28 10:54:21;;;;;;;5.10;2.80;;;;;;;;;;5011927;28;20383;-58
2023/07/28 10:56:48;;;;;;;8.48;3.25;;;;;;;;;;5011691;28;20040;-66
2023/07/28 10:59:15;;;;;;;7.57;3.40;;;;;;;;;;5011587;28;20097;-65
2023/07/28 11:01:43;;;;;;;5.32;2.88;;;;;;;;;;5011489;28;20052;-64
2023/07/28 11:04:13;;;;;;;3.38;2.50;;;;;;;;;;5013177;28;20028;-64
2023/07/28 11:06:47;;;;;;;8.00;3.17;;;;;;;;;;5009228;28;20034;-64
2023/07/28 11:09:17;;;;;;;5.00;3.10;;;;;;;;;;5011137;28;20062;-63
2023/07/28 11:11:44;;;;;;;6.78;3.17;;;;;;;;;;5012814;28;20050;-63
2023/07/28 11:14:11;;;;;;;6.78;2.67;;;;;;;;;;5012905;28;20038;-63
2023/07/28 11:16:40;;;;;;;8.23;3.20;;;;;;;;;;5012658;28;20472;-64
2023/07/28 11:19:11;;;;;;;25.63;3.72;;;;;;;;;;5012845;28;20534;-61
2023/07/28 11:21:39;;;;;;;47.58;5.82;;;;;;;;;;5012576;28;20037;-51
2023/07/28 11:24:06;;;;;;;31.40;4.00;;;;;;;;;;5012672;28;20034;-57
2023/07/28 11:26:33;;;;;;;108.30;9.45;;;;;;;;;;5012719;28;20114;-52
2023/07/28 11:29:01;;;;;;;277.90;19.27;;;;;;;;;;5012984;28;20088;-50
2023/07/28 11:31:28;;;;;;;149.27;10.60;;;;;;;;;;5013146;28;20021;-49
2023/07/28 11:33:55;;;;;;;71.50;6.88;;;;;;;;;;5013066;28;20030;-55
2023/07/28 11:36:25;;;;;;;54.30;6.65;;;;;;;;;;5012986;28;20481;-54
2023/07/28 11:38:56;;;;;;;41.75;6.85;;;;;;;;;;5012787;28;20030;-47
2023/07/28 11:41:23;;;;;;;47.70;7.72;;;;;;;;;;5012885;28;20380;-50
2023/07/28 11:43:51;;;;;;;173.50;14.70;;;;;;;;;;5012341;28;20022;-47
2023/07/28 11:46:38;;;;;;;78.50;8.90;;;;;;;;;;5012642;28;20053;-48
2023/07/28 11:49:12;;;;;;;107.57;9.40;;;;;;;;;;5012807;28;20373;-53
2023/07/28 11:51:43;;;;;;;56.83;7.15;;;;;;;;;;5012732;28;20495;-48
2023/07/28 11:54:16;;;;;;;60.42;7.20;;;;;;;;;;5012629;28;20034;-52
2023/07/28 11:56:44;;;;;;;72.72;7.95;;;;;;;;;;5012660;28;20412;-51
2023/07/28 11:59:12;;;;;;;53.42;6.82;;;;;;;;;;5012464;28;20036;-55
2023/07/28 12:01:57;;;;;;;50.13;7.05;;;;;;;;;;5012366;28;20115;-48
2023/07/28 12:04:25;;;;;;;50.97;7.10;;;;;;;;;;5012541;28;20041;-58
2023/07/28 12:07:10;;;;;;;58.42;7.07;;;;;;;;;;5012495;28;20391;-57
2023/07/28 12:09:51;;;;;;;38.45;5.50;;;;;;;;;;5012240;28;20392;-55
2023/07/28 12:12:19;;;;;;;26.92;4.97;;;;;;;;;;5012349;28;20484;-48
2023/07/28 12:14:47;;;;;;;26.15;4.95;;;;;;;;;;5012404;28;20055;-53
2023/07/28 12:17:14;;;;;;;22.27;4.60;;;;;;;;;;5012276;28;20026;-48
2023/07/28 12:19:59;;;;;;;16.67;4.13;;;;;;;;;;5012170;28;20033;-53
2023/07/28 12:22:27;;;;;;;23.63;4.88;;;;;;;;;;5012187;28;20464;-56
2023/07/28 12:24:55;;;;;;;25.73;4.30;;;;;;;;;;5012185;28;20061;-49
2023/07/28 12:27:24;;;;;;;29.73;4.75;;;;;;;;;;5012224;28;20100;-59
2023/07/28 12:29:52;;;;;;;31.13;4.22;;;;;;;;;;5011487;28;20037;-50
2023/07/28 12:32:19;;;;;;;25.33;4.57;;;;;;;;;;5012043;28;20496;-54
2023/07/28 12:34:46;;;;;;;30.85;4.38;;;;;;;;;;5011924;28;20022;-59
2023/07/28 12:37:13;;;;;;;30.13;4.88;;;;;;;;;;5012055;28;20054;-58
2023/07/28 12:39:40;;;;;;;23.52;4.53;;;;;;;;;;5011844;28;20091;-60
2023/07/28 12:42:10;;;;;;;30.48;4.95;;;;;;;;;;5011754;28;20488;-57
2023/07/28 12:44:37;;;;;;;19.40;4.35;;;;;;;;;;5010361;28;20029;-59
2023/07/28 12:47:04;;;;;;;24.60;4.50;;;;;;;;;;5010096;28;20026;-59
2023/07/28 12:49:34;;;;;;;20.02;4.63;;;;;;;;;;5011259;28;20451;-59
2023/07/28 12:52:02;;;;;;;21.58;3.83;;;;;;;;;;5011809;28;20365;-55
2023/07/28 12:54:29;;;;;;;30.30;4.47;;;;;;;;;;5010538;28;20034;-58
2023/07/28 12:56:56;;;;;;;22.27;4.47;;;;;;;;;;5011129;28;20046;-59
2023/07/28 12:59:24;;;;;;;17.67;4.10;;;;;;;;;;5011297;28;20034;-59
2023/07/28 13:01:51;;;;;;;13.80;3.28;;;;;;;;;;5011210;28;20125;-59
2023/07/28 13:04:18;;;;;;;15.60;3.45;;;;;;;;;;4993412;28;20027;-53
2023/07/28 13:06:45;;;;;;;13.85;3.47;;;;;;;;;;4990335;28;20033;-59
2023/07/28 13:09:12;;;;;;;17.95;3.67;;;;;;;;;;4991881;28;20501;-59
2023/07/28 13:11:39;;;;;;;24.33;3.78;;;;;;;;;;4990584;28;20034;-59
2023/07/28 13:14:07;;;;;;;16.55;3.47;;;;;;;;;;4992046;28;20057;-59
2023/07/28 13:16:34;;;;;;;18.77;3.60;;;;;;;;;;4991561;28;20030;-58
2023/07/28 13:19:01;;;;;;;19.63;3.60;;;;;;;;;;4991871;28;20081;-59
2023/07/28 13:21:28;;;;;;;19.35;3.47;;;;;;;;;;4991930;28;20334;-59
2023/07/28 13:23:55;;;;;;;10.52;3.40;;;;;;;;;;4990627;28;20563;-59
2023/07/28 13:26:22;;;;;;;12.77;2.97;;;;;;;;;;4991901;28;20069;-59
2023/07/28 13:28:49;;;;;;;17.20;3.20;;;;;;;;;;4991900;28;20519;-59
2023/07/28 13:31:19;;;;;;;15.13;3.05;;;;;;;;;;4991922;28;20040;-57
2023/07/28 13:33:46;;;;;;;18.20;3.60;;;;;;;;;;4991996;28;20030;-57
2023/07/28 13:36:13;;;;;;;13.23;3.53;;;;;;;;;;4991926;28;20037;-57
2023/07/28 13:38:41;;;;;;;10.93;3.53;;;;;;;;;;4991758;28;20030;-59
2023/07/28 13:41:08;;;;;;;21.50;3.80;;;;;;;;;;4991944;28;20034;-58
2023/07/28 13:43:37;;;;;;;16.42;3.55;;;;;;;;;;4992792;28;20038;-59
2023/07/28 13:46:04;;;;;;;16.95;3.60;;;;;;;;;;5010899;28;20492;-59
2023/07/28 13:48:32;;;;;;;19.98;3.85;;;;;;;;;;5010576;28;20125;-59
2023/07/28 13:50:59;;;;;;;20.15;3.45;;;;;;;;;;5010734;28;20037;-59
2023/07/28 13:53:26;;;;;;;20.25;4.05;;;;;;;;;;5011032;28;20392;-59
2023/07/28 13:55:53;;;;;;;20.10;3.58;;;;;;;;;;5010737;28;20068;-59
2023/07/28 13:58:21;;;;;;;21.33;4.60;;;;;;;;;;5011009;28;20037;-59
2023/07/28 14:00:48;;;;;;;27.48;4.30;;;;;;;;;;5010844;28;20163;-59
2023/07/28 14:03:16;;;;;;;21.38;4.07;;;;;;;;;;5010739;28;20072;-59
2023/07/28 14:05:43;;;;;;;19.08;3.58;;;;;;;;;;5010926;28;20076;-59
2023/07/28 14:08:10;;;;;;;21.02;4.13;;;;;;;;;;5014408;28;20096;-59
2023/07/28 14:10:38;;;;;;;17.15;4.22;;;;;;;;;;5001455;28;20026;-59
2023/07/28 14:13:05;;;;;;;21.88;3.78;;;;;;;;;;5014129;28;20130;-59
2023/07/28 14:15:33;;;;;;;23.52;4.00;;;;;;;;;;5013689;28;20388;-59
2023/07/28 14:18:00;;;;;;;23.40;4.28;;;;;;;;;;5013905;28;20124;-59
2023/07/28 14:20:27;;;;;;;25.73;4.20;;;;;;;;;;5014113;28;20032;-58
2023/07/28 14:22:54;;;;;;;26.48;3.83;;;;;;;;;;5014095;28;20052;-58
2023/07/28 14:25:22;;;;;;;22.80;4.25;;;;;;;;;;5014043;28;20034;-58
2023/07/28 14:27:49;;;;;;;23.85;3.50;;;;;;;;;;5013633;28;20480;-59
2023/07/28 14:30:16;;;;;;;18.27;3.72;;;;;;;;;;5014235;28;20127;-59
2023/07/28 14:32:43;;;;;;;21.73;4.00;;;;;;;;;;5013993;28;20032;-58
2023/07/28 14:35:10;;;;;;;17.88;3.35;;;;;;;;;;5014261;28;20092;-58
2023/07/28 14:37:37;;;;;;;23.83;4.32;;;;;;;;;;5013992;28;20076;-59